sensor_id;sensor_type;location;lat;lon;timestamp;pressure;altitude;pressure_sealevel;temperature;humidity
27864;BME280;15980;51.092;13.916;2022-08-24T00:01:07;99008.25;;;19.36;97.03
27864;BME280;15980;51.092;13.916;2022-08-24T00:06:15;99009.03;;;19.36;96.52
27864;BME280;15980;51.092;13.916;2022-08-24T00:11:20;99013.81;;;19.36;96.60
27864;BME280;15980;51.092;13.916;2022-08-24T00:16:23;99005.84;;;19.31;96.72
27864;BME280;15980;51.092;13.916;2022-08-24T00:21:28;99007.44;;;19.35;96.67
27864;BME280;15980;51.092;13.916;2022-08-24T00:26:31;99011.41;;;19.31;96.42
27864;BME280;15980;51.092;13.916;2022-08-24T00:31:35;99003.47;;;19.36;96.78
27864;BME280;15980;51.092;13.916;2022-08-24T00:36:40;99010.22;;;19.35;95.57
27864;BME280;15980;51.092;13.916;2022-08-24T00:41:46;98998.69;;;19.33;96.23
27864;BME280;15980;51.092;13.916;2022-08-24T00:46:53;98991.94;;;19.34;95.61
27864;BME280;15980;51.092;13.916;2022-08-24T00:52:03;98994.72;;;19.34;95.87
27864;BME280;15980;51.092;13.916;2022-08-24T00:57:08;98997.03;;;19.18;95.99
27864;BME280;15980;51.092;13.916;2022-08-24T01:02:16;99005.78;;;19.17;95.93
27864;BME280;15980;51.092;13.916;2022-08-24T01:07:22;99006.22;;;19.26;95.21
27864;BME280;15980;51.092;13.916;2022-08-24T01:12:27;99005.81;;;19.27;94.14
27864;BME280;15980;51.092;13.916;2022-08-24T01:17:32;99001.84;;;19.28;94.19
27864;BME280;15980;51.092;13.916;2022-08-24T01:23:02;99013.78;;;19.29;94.11
27864;BME280;15980;51.092;13.916;2022-08-24T01:28:11;99006.59;;;19.24;93.83
27864;BME280;15980;51.092;13.916;2022-08-24T01:33:22;99010.59;;;19.27;94.15
27864;BME280;15980;51.092;13.916;2022-08-24T01:38:26;99001.78;;;19.14;95.35
27864;BME280;15980;51.092;13.916;2022-08-24T01:43:31;98997.03;;;19.18;95.30
27864;BME280;15980;51.092;13.916;2022-08-24T01:48:34;98996.25;;;19.21;94.34
27864;BME280;15980;51.092;13.916;2022-08-24T01:53:37;98999.41;;;19.16;94.64
27864;BME280;15980;51.092;13.916;2022-08-24T01:58:44;98996.63;;;19.16;93.93
27864;BME280;15980;51.092;13.916;2022-08-24T02:03:48;98991.09;;;19.20;93.42
27864;BME280;15980;51.092;13.916;2022-08-24T02:08:51;98998.63;;;19.19;92.81
27864;BME280;15980;51.092;13.916;2022-08-24T02:13:55;98993.06;;;19.16;93.33
27864;BME280;15980;51.092;13.916;2022-08-24T02:18:58;98989.34;;;18.94;94.87
27864;BME280;15980;51.092;13.916;2022-08-24T02:24:02;98990.47;;;18.78;95.23
27864;BME280;15980;51.092;13.916;2022-08-24T02:29:06;98985.97;;;18.63;95.28
27864;BME280;15980;51.092;13.916;2022-08-24T02:34:09;98988.63;;;18.45;95.11
27864;BME280;15980;51.092;13.916;2022-08-24T02:39:12;98993.28;;;18.31;95.80
27864;BME280;15980;51.092;13.916;2022-08-24T02:44:17;98989.56;;;18.16;96.25
27864;BME280;15980;51.092;13.916;2022-08-24T02:49:20;98989.03;;;18.00;96.71
27864;BME280;15980;51.092;13.916;2022-08-24T02:54:24;98984.53;;;17.84;97.21
27864;BME280;15980;51.092;13.916;2022-08-24T02:59:28;98997.47;;;17.73;97.66
27864;BME280;15980;51.092;13.916;2022-08-24T03:04:31;98994.91;;;17.57;99.76
27864;BME280;15980;51.092;13.916;2022-08-24T03:09:34;99009.88;;;17.49;100.00
27864;BME280;15980;51.092;13.916;2022-08-24T03:14:39;99013.72;;;17.38;100.00
27864;BME280;15980;51.092;13.916;2022-08-24T03:19:42;99016.38;;;17.31;100.00
27864;BME280;15980;51.092;13.916;2022-08-24T03:24:45;99014.31;;;17.24;100.00
27864;BME280;15980;51.092;13.916;2022-08-24T03:29:49;99020.59;;;17.21;100.00
27864;BME280;15980;51.092;13.916;2022-08-24T03:34:52;99019.81;;;17.20;100.00
27864;BME280;15980;51.092;13.916;2022-08-24T03:39:56;99023.00;;;17.22;100.00
27864;BME280;15980;51.092;13.916;2022-08-24T03:45:00;99024.63;;;17.27;100.00
27864;BME280;15980;51.092;13.916;2022-08-24T03:50:04;99028.34;;;17.35;100.00
27864;BME280;15980;51.092;13.916;2022-08-24T03:55:09;99035.19;;;17.44;100.00
27864;BME280;15980;51.092;13.916;2022-08-24T04:00:14;99039.13;;;17.43;100.00
27864;BME280;15980;51.092;13.916;2022-08-24T04:11:40;99040.97;;;17.66;100.00
27864;BME280;15980;51.092;13.916;2022-08-24T04:16:46;99035.94;;;17.75;100.00
27864;BME280;15980;51.092;13.916;2022-08-24T04:21:49;99039.59;;;17.79;100.00
27864;BME280;15980;51.092;13.916;2022-08-24T04:26:52;99038.81;;;17.82;99.75
27864;BME280;15980;51.092;13.916;2022-08-24T04:31:56;99032.47;;;17.81;100.00
27864;BME280;15980;51.092;13.916;2022-08-24T04:37:00;99039.34;;;17.95;100.00
27864;BME280;15980;51.092;13.916;2022-08-24T04:42:03;99034.59;;;17.95;99.29
27864;BME280;15980;51.092;13.916;2022-08-24T04:47:08;99033.41;;;17.96;99.00
27864;BME280;15980;51.092;13.916;2022-08-24T04:52:11;99046.97;;;18.05;99.17
27864;BME280;15980;51.092;13.916;2022-08-24T04:57:14;99054.72;;;18.22;99.32
27864;BME280;15980;51.092;13.916;2022-08-24T05:02:19;99058.47;;;18.44;98.72
27864;BME280;15980;51.092;13.916;2022-08-24T05:07:23;99058.69;;;18.65;97.59
27864;BME280;15980;51.092;13.916;2022-08-24T05:12:27;99065.94;;;18.80;96.94
27864;BME280;15980;51.092;13.916;2022-08-24T05:17:31;99070.00;;;18.94;96.00
27864;BME280;15980;51.092;13.916;2022-08-24T05:22:34;99076.78;;;19.00;94.42
27864;BME280;15980;51.092;13.916;2022-08-24T05:27:38;99085.16;;;19.03;94.21
27864;BME280;15980;51.092;13.916;2022-08-24T05:32:43;99086.03;;;19.11;94.83
27864;BME280;15980;51.092;13.916;2022-08-24T05:37:46;99075.72;;;19.19;94.49
27864;BME280;15980;51.092;13.916;2022-08-24T05:42:49;99083.00;;;19.41;93.56
27864;BME280;15980;51.092;13.916;2022-08-24T05:47:53;99087.78;;;19.44;92.04
27864;BME280;15980;51.092;13.916;2022-08-24T05:52:56;99084.72;;;19.56;91.44
27864;BME280;15980;51.092;13.916;2022-08-24T05:58:00;99089.88;;;19.58;91.56
27864;BME280;15980;51.092;13.916;2022-08-24T06:03:04;99083.13;;;19.55;91.50
27864;BME280;15980;51.092;13.916;2022-08-24T06:08:08;99093.47;;;19.62;91.67
27864;BME280;15980;51.092;13.916;2022-08-24T06:13:11;99098.22;;;19.54;91.66
27864;BME280;15980;51.092;13.916;2022-08-24T06:18:16;99088.50;;;19.30;94.98
27864;BME280;15980;51.092;13.916;2022-08-24T06:23:19;99082.81;;;19.09;95.78
27864;BME280;15980;51.092;13.916;2022-08-24T06:28:23;99092.66;;;19.58;93.60
27864;BME280;15980;51.092;13.916;2022-08-24T06:33:27;99098.28;;;19.75;90.97
27864;BME280;15980;51.092;13.916;2022-08-24T06:38:30;99102.53;;;19.52;93.71
27864;BME280;15980;51.092;13.916;2022-08-24T06:43:33;99108.66;;;19.79;91.90
27864;BME280;15980;51.092;13.916;2022-08-24T06:48:38;99112.66;;;19.88;91.93
27864;BME280;15980;51.092;13.916;2022-08-24T06:53:41;99116.72;;;20.16;91.84
27864;BME280;15980;51.092;13.916;2022-08-24T06:58:44;99124.31;;;20.33;89.95
27864;BME280;15980;51.092;13.916;2022-08-24T07:03:49;99123.13;;;20.34;89.64
27864;BME280;15980;51.092;13.916;2022-08-24T07:08:53;99124.00;;;20.56;87.43
27864;BME280;15980;51.092;13.916;2022-08-24T07:13:57;99128.34;;;20.39;88.98
27864;BME280;15980;51.092;13.916;2022-08-24T07:19:02;99124.03;;;20.88;87.54
27864;BME280;15980;51.092;13.916;2022-08-24T07:24:06;99116.81;;;21.19;87.22
27864;BME280;15980;51.092;13.916;2022-08-24T07:34:29;99130.16;;;22.06;80.43
27864;BME280;15980;51.092;13.916;2022-08-24T07:39:32;99121.94;;;21.56;86.08
27864;BME280;15980;51.092;13.916;2022-08-24T07:44:36;99125.28;;;22.24;81.35
27864;BME280;15980;51.092;13.916;2022-08-24T07:49:41;99131.94;;;22.48;78.51
27864;BME280;15980;51.092;13.916;2022-08-24T07:54:44;99139.88;;;22.53;78.99
27864;BME280;15980;51.092;13.916;2022-08-24T07:59:47;99136.91;;;22.78;79.41
27864;BME280;15980;51.092;13.916;2022-08-24T08:04:53;99144.16;;;22.72;78.80
27864;BME280;15980;51.092;13.916;2022-08-24T08:09:56;99133.31;;;22.18;82.32
27864;BME280;15980;51.092;13.916;2022-08-24T08:14:59;99151.69;;;22.16;81.06
27864;BME280;15980;51.092;13.916;2022-08-24T08:20:05;99150.47;;;22.20;80.93
27864;BME280;15980;51.092;13.916;2022-08-24T08:25:09;99144.25;;;22.61;79.49
27864;BME280;15980;51.092;13.916;2022-08-24T08:30:12;99152.28;;;23.52;76.60
27864;BME280;15980;51.092;13.916;2022-08-24T08:35:17;99153.78;;;23.64;74.48
27864;BME280;15980;51.092;13.916;2022-08-24T08:40:29;99149.84;;;23.58;75.15
27864;BME280;15980;51.092;13.916;2022-08-24T08:45:57;99154.78;;;23.80;71.47
27864;BME280;15980;51.092;13.916;2022-08-24T08:51:36;99156.13;;;24.03;72.03
27864;BME280;15980;51.092;13.916;2022-08-24T08:56:52;99160.50;;;24.04;71.70
27864;BME280;15980;51.092;13.916;2022-08-24T09:02:06;99157.59;;;24.45;69.17
27864;BME280;15980;51.092;13.916;2022-08-24T09:07:30;99158.72;;;24.78;67.83
27864;BME280;15980;51.092;13.916;2022-08-24T09:12:49;99160.72;;;24.51;67.97
27864;BME280;15980;51.092;13.916;2022-08-24T09:18:08;99172.91;;;24.06;69.21
27864;BME280;15980;51.092;13.916;2022-08-24T09:23:21;99163.91;;;23.88;71.18
27864;BME280;15980;51.092;13.916;2022-08-24T09:28:40;99163.59;;;24.13;70.59
27864;BME280;15980;51.092;13.916;2022-08-24T09:33:49;99170.09;;;24.40;67.86
27864;BME280;15980;51.092;13.916;2022-08-24T09:39:05;99164.38;;;24.48;68.08
27864;BME280;15980;51.092;13.916;2022-08-24T09:44:33;99159.44;;;24.82;69.42
27864;BME280;15980;51.092;13.916;2022-08-24T09:50:07;99157.72;;;25.39;66.02
27864;BME280;15980;51.092;13.916;2022-08-24T09:55:56;99147.69;;;25.61;64.07
27864;BME280;15980;51.092;13.916;2022-08-24T10:01:07;99138.13;;;25.78;63.16
27864;BME280;15980;51.092;13.916;2022-08-24T10:06:25;99138.41;;;25.64;63.40
27864;BME280;15980;51.092;13.916;2022-08-24T10:11:40;99137.47;;;26.10;63.07
27864;BME280;15980;51.092;13.916;2022-08-24T10:16:55;99140.59;;;26.52;60.92
27864;BME280;15980;51.092;13.916;2022-08-24T10:22:06;99141.16;;;26.79;59.48
27864;BME280;15980;51.092;13.916;2022-08-24T10:27:43;99140.56;;;27.20;59.71
27864;BME280;15980;51.092;13.916;2022-08-24T10:32:56;99134.09;;;26.71;59.56
27864;BME280;15980;51.092;13.916;2022-08-24T10:38:31;99142.38;;;26.62;60.28
27864;BME280;15980;51.092;13.916;2022-08-24T10:44:09;99135.72;;;26.88;60.80
27864;BME280;15980;51.092;13.916;2022-08-24T10:54:35;99129.19;;;27.69;57.85
27864;BME280;15980;51.092;13.916;2022-08-24T10:59:47;99128.47;;;27.81;55.07
27864;BME280;15980;51.092;13.916;2022-08-24T11:04:55;99128.84;;;27.96;55.35
27864;BME280;15980;51.092;13.916;2022-08-24T11:10:01;99124.19;;;27.77;54.77
27864;BME280;15980;51.092;13.916;2022-08-24T11:15:19;99134.81;;;27.98;53.63
27864;BME280;15980;51.092;13.916;2022-08-24T11:20:26;99138.88;;;28.26;52.71
27864;BME280;15980;51.092;13.916;2022-08-24T11:25:30;99146.09;;;27.86;53.94
27864;BME280;15980;51.092;13.916;2022-08-24T11:30:38;99136.09;;;27.52;54.97
27864;BME280;15980;51.092;13.916;2022-08-24T11:35:41;99145.31;;;27.40;55.33
27864;BME280;15980;51.092;13.916;2022-08-24T11:40:50;99142.56;;;27.36;56.37
27864;BME280;15980;51.092;13.916;2022-08-24T11:46:05;99140.22;;;27.18;57.31
27864;BME280;15980;51.092;13.916;2022-08-24T11:51:13;99140.47;;;27.24;57.33
27864;BME280;15980;51.092;13.916;2022-08-24T11:56:24;99136.25;;;27.32;55.61
27864;BME280;15980;51.092;13.916;2022-08-24T12:01:36;99134.66;;;27.60;56.89
27864;BME280;15980;51.092;13.916;2022-08-24T12:06:51;99130.91;;;28.08;56.20
27864;BME280;15980;51.092;13.916;2022-08-24T12:12:02;99122.94;;;28.20;53.04
27864;BME280;15980;51.092;13.916;2022-08-24T12:17:14;99125.72;;;28.07;53.12
27864;BME280;15980;51.092;13.916;2022-08-24T12:22:21;99122.44;;;27.67;54.53
27864;BME280;15980;51.092;13.916;2022-08-24T12:27:27;99116.47;;;27.48;56.55
27864;BME280;15980;51.092;13.916;2022-08-24T12:32:37;99123.91;;;27.26;57.49
27864;BME280;15980;51.092;13.916;2022-08-24T12:37:44;99115.03;;;27.57;57.01
27864;BME280;15980;51.092;13.916;2022-08-24T12:42:50;99110.22;;;27.86;54.92
27864;BME280;15980;51.092;13.916;2022-08-24T12:48:00;99110.22;;;28.40;53.20
27864;BME280;15980;51.092;13.916;2022-08-24T12:53:26;99109.06;;;28.38;54.64
27864;BME280;15980;51.092;13.916;2022-08-24T12:59:02;99107.78;;;28.13;53.42
27864;BME280;15980;51.092;13.916;2022-08-24T13:04:12;99104.56;;;28.53;52.24
27864;BME280;15980;51.092;13.916;2022-08-24T13:09:28;99113.03;;;28.78;52.05
27864;BME280;15980;51.092;13.916;2022-08-24T13:14:33;99112.59;;;28.67;52.04
27864;BME280;15980;51.092;13.916;2022-08-24T13:19:40;99112.47;;;28.58;51.35
27864;BME280;15980;51.092;13.916;2022-08-24T13:24:45;99103.31;;;28.67;52.47
27864;BME280;15980;51.092;13.916;2022-08-24T13:29:52;99100.63;;;28.63;49.89
27864;BME280;15980;51.092;13.916;2022-08-24T13:34:58;99104.81;;;28.04;52.51
27864;BME280;15980;51.092;13.916;2022-08-24T13:40:05;99111.94;;;28.09;53.81
27864;BME280;15980;51.092;13.916;2022-08-24T13:45:24;99107.41;;;27.99;54.03
27864;BME280;15980;51.092;13.916;2022-08-24T13:50:38;99104.34;;;27.80;54.02
27864;BME280;15980;51.092;13.916;2022-08-24T13:55:46;99105.31;;;27.74;54.23
27864;BME280;15980;51.092;13.916;2022-08-24T14:00:55;99114.75;;;27.67;53.75
27864;BME280;15980;51.092;13.916;2022-08-24T14:06:17;99103.19;;;27.78;53.40
27864;BME280;15980;51.092;13.916;2022-08-24T14:11:37;99106.16;;;27.87;53.30
27864;BME280;15980;51.092;13.916;2022-08-24T14:16:54;99106.41;;;27.64;53.57
27864;BME280;15980;51.092;13.916;2022-08-24T14:22:31;99107.78;;;27.27;53.40
27864;BME280;15980;51.092;13.916;2022-08-24T14:27:39;99102.06;;;27.30;53.82
27864;BME280;15980;51.092;13.916;2022-08-24T14:33:02;99097.97;;;27.47;55.05
27864;BME280;15980;51.092;13.916;2022-08-24T14:38:36;99086.81;;;26.99;56.08
27864;BME280;15980;51.092;13.916;2022-08-24T14:44:07;99092.31;;;27.18;56.68
27864;BME280;15980;51.092;13.916;2022-08-24T14:49:17;99087.25;;;27.42;56.24
27864;BME280;15980;51.092;13.916;2022-08-24T14:54:31;99081.78;;;27.93;53.42
27864;BME280;15980;51.092;13.916;2022-08-24T14:59:47;99078.16;;;27.80;54.29
27864;BME280;15980;51.092;13.916;2022-08-24T15:04:59;99083.19;;;27.43;54.89
27864;BME280;15980;51.092;13.916;2022-08-24T15:10:12;99070.66;;;27.32;55.01
27864;BME280;15980;51.092;13.916;2022-08-24T15:15:23;99062.56;;;26.85;56.94
27864;BME280;15980;51.092;13.916;2022-08-24T15:20:42;99064.28;;;26.99;57.98
27864;BME280;15980;51.092;13.916;2022-08-24T15:25:51;99059.59;;;27.08;57.53
27864;BME280;15980;51.092;13.916;2022-08-24T15:30:58;99055.19;;;27.07;56.65
27864;BME280;15980;51.092;13.916;2022-08-24T15:36:05;99055.91;;;26.95;57.56
27864;BME280;15980;51.092;13.916;2022-08-24T15:41:12;99053.31;;;27.17;57.92
27864;BME280;15980;51.092;13.916;2022-08-24T15:46:18;99052.72;;;27.09;57.84
27864;BME280;15980;51.092;13.916;2022-08-24T15:51:35;99064.63;;;27.01;57.84
27864;BME280;15980;51.092;13.916;2022-08-24T15:56:45;99057.47;;;27.12;57.84
27864;BME280;15980;51.092;13.916;2022-08-24T16:01:55;99052.09;;;26.85;57.19
27864;BME280;15980;51.092;13.916;2022-08-24T16:07:29;99059.44;;;26.50;58.29
27864;BME280;15980;51.092;13.916;2022-08-24T16:12:35;99049.50;;;26.62;58.92
27864;BME280;15980;51.092;13.916;2022-08-24T16:17:40;99053.78;;;26.67;57.58
27864;BME280;15980;51.092;13.916;2022-08-24T16:22:51;99045.41;;;26.30;60.98
27864;BME280;15980;51.092;13.916;2022-08-24T16:28:05;99055.28;;;26.03;62.70
27864;BME280;15980;51.092;13.916;2022-08-24T16:33:10;99057.41;;;25.79;63.11
27864;BME280;15980;51.092;13.916;2022-08-24T16:38:37;99053.72;;;25.62;63.28
27864;BME280;15980;51.092;13.916;2022-08-24T16:43:42;99049.59;;;25.47;63.98
27864;BME280;15980;51.092;13.916;2022-08-24T16:48:46;99051.63;;;25.46;64.06
27864;BME280;15980;51.092;13.916;2022-08-24T16:53:48;99061.19;;;25.49;64.11
27864;BME280;15980;51.092;13.916;2022-08-24T16:58:53;99054.94;;;25.41;63.71
27864;BME280;15980;51.092;13.916;2022-08-24T17:03:56;99057.66;;;25.25;63.04
27864;BME280;15980;51.092;13.916;2022-08-24T17:08:58;99052.84;;;25.25;62.90
27864;BME280;15980;51.092;13.916;2022-08-24T17:14:03;99065.38;;;25.21;63.85
27864;BME280;15980;51.092;13.916;2022-08-24T17:19:10;99061.22;;;25.05;64.84
27864;BME280;15980;51.092;13.916;2022-08-24T17:24:15;99065.84;;;24.92;65.24
27864;BME280;15980;51.092;13.916;2022-08-24T17:29:21;99061.81;;;24.70;67.08
27864;BME280;15980;51.092;13.916;2022-08-24T17:34:24;99068.56;;;24.49;68.39
27864;BME280;15980;51.092;13.916;2022-08-24T17:39:28;99083.25;;;24.33;69.01
27864;BME280;15980;51.092;13.916;2022-08-24T17:44:32;99081.06;;;24.14;70.12
27864;BME280;15980;51.092;13.916;2022-08-24T17:49:37;99083.81;;;23.91;70.97
27864;BME280;15980;51.092;13.916;2022-08-24T17:54:40;99084.88;;;23.70;72.10
27864;BME280;15980;51.092;13.916;2022-08-24T17:59:44;99090.31;;;23.46;72.56
27864;BME280;15980;51.092;13.916;2022-08-24T18:04:47;99096.19;;;23.22;72.87
27864;BME280;15980;51.092;13.916;2022-08-24T18:09:52;99093.19;;;23.02;73.27
27864;BME280;15980;51.092;13.916;2022-08-24T18:14:56;99099.34;;;22.79;74.07
27864;BME280;15980;51.092;13.916;2022-08-24T18:20:00;99100.72;;;22.56;74.88
27864;BME280;15980;51.092;13.916;2022-08-24T18:25:04;99104.06;;;22.34;75.93
27864;BME280;15980;51.092;13.916;2022-08-24T18:30:13;99110.19;;;22.14;76.19
27864;BME280;15980;51.092;13.916;2022-08-24T18:35:18;99111.03;;;21.93;77.13
27864;BME280;15980;51.092;13.916;2022-08-24T18:40:21;99107.94;;;21.77;78.69
27864;BME280;15980;51.092;13.916;2022-08-24T18:45:29;99125.53;;;21.60;79.75
27864;BME280;15980;51.092;13.916;2022-08-24T18:50:34;99127.59;;;21.42;80.41
27864;BME280;15980;51.092;13.916;2022-08-24T18:55:39;99132.00;;;21.25;81.62
27864;BME280;15980;51.092;13.916;2022-08-24T19:00:46;99134.38;;;21.12;81.94
27864;BME280;15980;51.092;13.916;2022-08-24T19:05:49;99129.22;;;20.96;82.56
27864;BME280;15980;51.092;13.916;2022-08-24T19:10:52;99133.59;;;20.83;83.27
27864;BME280;15980;51.092;13.916;2022-08-24T19:15:56;99133.56;;;20.73;83.89
27864;BME280;15980;51.092;13.916;2022-08-24T19:20:59;99143.94;;;20.61;84.01
27864;BME280;15980;51.092;13.916;2022-08-24T19:26:02;99133.56;;;20.51;85.22
27864;BME280;15980;51.092;13.916;2022-08-24T19:31:10;99130.78;;;20.41;85.18
27864;BME280;15980;51.092;13.916;2022-08-24T19:36:13;99129.09;;;20.29;85.73
27864;BME280;15980;51.092;13.916;2022-08-24T19:41:16;99133.47;;;20.19;86.35
27864;BME280;15980;51.092;13.916;2022-08-24T19:46:20;99140.59;;;20.10;86.59
27864;BME280;15980;51.092;13.916;2022-08-24T19:51:23;99139.00;;;20.01;87.11
27864;BME280;15980;51.092;13.916;2022-08-24T19:56:27;99137.34;;;19.93;88.14
27864;BME280;15980;51.092;13.916;2022-08-24T20:01:32;99138.91;;;19.87;89.12
27864;BME280;15980;51.092;13.916;2022-08-24T20:06:36;99136.91;;;19.81;89.05
27864;BME280;15980;51.092;13.916;2022-08-24T20:11:41;99146.03;;;19.74;88.92
27864;BME280;15980;51.092;13.916;2022-08-24T20:16:46;99135.66;;;19.67;89.54
27864;BME280;15980;51.092;13.916;2022-08-24T20:21:49;99143.59;;;19.62;89.47
27864;BME280;15980;51.092;13.916;2022-08-24T20:26:52;99141.16;;;19.57;89.91
27864;BME280;15980;51.092;13.916;2022-08-24T20:31:56;99139.88;;;19.47;90.83
27864;BME280;15980;51.092;13.916;2022-08-24T20:37:02;99145.00;;;19.41;90.77
27864;BME280;15980;51.092;13.916;2022-08-24T20:42:05;99133.81;;;19.31;90.53
27864;BME280;15980;51.092;13.916;2022-08-24T20:47:13;99137.75;;;19.23;91.46
27864;BME280;15980;51.092;13.916;2022-08-24T20:52:16;99129.78;;;19.18;91.73
27864;BME280;15980;51.092;13.916;2022-08-24T20:57:19;99127.34;;;19.09;91.95
27864;BME280;15980;51.092;13.916;2022-08-24T21:02:25;99127.25;;;19.02;92.17
27864;BME280;15980;51.092;13.916;2022-08-24T21:07:28;99123.25;;;18.96;92.23
27864;BME280;15980;51.092;13.916;2022-08-24T21:12:31;99128.75;;;18.89;92.28
27864;BME280;15980;51.092;13.916;2022-08-24T21:17:35;99134.25;;;18.81;93.09
27864;BME280;15980;51.092;13.916;2022-08-24T21:22:38;99131.84;;;18.76;92.95
27864;BME280;15980;51.092;13.916;2022-08-24T21:27:43;99138.53;;;18.68;93.40
27864;BME280;15980;51.092;13.916;2022-08-24T21:32:48;99132.47;;;18.63;93.78
27864;BME280;15980;51.092;13.916;2022-08-24T21:38:09;99137.16;;;18.55;94.13
27864;BME280;15980;51.092;13.916;2022-08-24T21:43:13;99144.66;;;18.51;94.46
27864;BME280;15980;51.092;13.916;2022-08-24T21:48:17;99140.25;;;18.46;94.48
27864;BME280;15980;51.092;13.916;2022-08-24T21:53:20;99144.97;;;18.42;94.71
27864;BME280;15980;51.092;13.916;2022-08-24T21:58:23;99141.34;;;18.35;94.53
27864;BME280;15980;51.092;13.916;2022-08-24T22:03:28;99143.28;;;18.31;96.22
27864;BME280;15980;51.092;13.916;2022-08-24T22:08:31;99137.31;;;18.29;96.27
27864;BME280;15980;51.092;13.916;2022-08-24T22:13:34;99139.66;;;18.27;96.16
27864;BME280;15980;51.092;13.916;2022-08-24T22:18:40;99135.19;;;18.18;95.82
27864;BME280;15980;51.092;13.916;2022-08-24T22:23:42;99137.88;;;18.11;95.85
27864;BME280;15980;51.092;13.916;2022-08-24T22:28:46;99124.34;;;18.06;96.33
27864;BME280;15980;51.092;13.916;2022-08-24T22:33:51;99115.22;;;18.06;96.25
27864;BME280;15980;51.092;13.916;2022-08-24T22:38:55;99112.78;;;18.01;96.29
27864;BME280;15980;51.092;13.916;2022-08-24T22:43:59;99116.69;;;17.96;96.15
27864;BME280;15980;51.092;13.916;2022-08-24T22:49:22;99107.91;;;17.91;96.64
27864;BME280;15980;51.092;13.916;2022-08-24T22:54:25;99109.47;;;17.88;96.93
27864;BME280;15980;51.092;13.916;2022-08-24T22:59:32;99104.69;;;17.85;96.92
27864;BME280;15980;51.092;13.916;2022-08-24T23:04:39;99107.78;;;17.80;97.06
27864;BME280;15980;51.092;13.916;2022-08-24T23:09:43;99099.78;;;17.75;97.18
27864;BME280;15980;51.092;13.916;2022-08-24T23:14:46;99105.66;;;17.70;97.21
27864;BME280;15980;51.092;13.916;2022-08-24T23:19:52;99098.91;;;17.67;97.33
27864;BME280;15980;51.092;13.916;2022-08-24T23:25:10;99101.56;;;17.60;97.25
27864;BME280;15980;51.092;13.916;2022-08-24T23:30:14;99107.47;;;17.58;97.45
27864;BME280;15980;51.092;13.916;2022-08-24T23:35:18;99091.59;;;17.55;97.23
27864;BME280;15980;51.092;13.916;2022-08-24T23:40:21;99088.72;;;17.48;97.28
27864;BME280;15980;51.092;13.916;2022-08-24T23:45:24;99079.56;;;17.44;97.26
27864;BME280;15980;51.092;13.916;2022-08-24T23:50:28;99082.66;;;17.39;97.30
27864;BME280;15980;51.092;13.916;2022-08-24T23:55:30;99082.56;;;17.32;96.86
